Overview Statistics Trail Chart Weather Telemetry Raw packets
 

This is the latest recevied weather packets stored in our database for station/object DO1BDB-12. If no packets are shown the sender has not sent any weather packets the latest 10 day(s).

<< 319 320 321 322 323 324 325 >>
Time Temp. Humidity Pressure Rain* Wind** Luminosity Snow
1788163957 23.89° C 63% 101 hPa - - - -
1788163891 25° C 59% 101 hPa - - - -
1788163825 25° C 59% 101 hPa - - - -
1788163760 23.89° C 63% 101 hPa - - - -
1788163694 25° C 60% 101 hPa - - - -
1788163628 27.78° C 53% 101 hPa - - - -
1788163562 27.22° C 61% 101 hPa - - - -
1788163497 23.89° C 64% 101 hPa - - - -
1788163430 23.33° C 70% 101 hPa - - - -
1788163364 21.11° C 79% 101 hPa - - - -
1788163299 20° C 82% 101 hPa - - - -
1788163233 21.11° C 76% 101 hPa - - - -
1788163167 22.22° C 72% 101 hPa - - - -
1788163101 23.89° C 67% 101 hPa - - - -
1788163035 21.11° C 74% 101 hPa - - - -
1788162969 23.89° C 67% 101 hPa - - - -
1788162904 22.78° C 77% 101 hPa - - - -
1788162838 20.56° C 84% 101 hPa - - - -
1788162772 20° C 82% 101 hPa - - - -
1788162707 20° C 84% 101 hPa - - - -
1788162640 19.44° C 86% 101 hPa - - - -
1788162574 18.89° C 88% 101 hPa - - - -
1788162508 18.89° C 90% 101 hPa - - - -
1788162443 18.89° C 89% 101 hPa - - - -
1788162377 18.33° C 90% 101 hPa - - - -

* Rain since midnight (hover to see other rain measurements)
** Current wind speed in m/s (hover to see current wind gust speed)